createdAt,value
2018-08-21T00:01:57.798Z,99.99
2018-08-21T00:11:57.859Z,99.99
2018-08-21T00:21:57.785Z,99.99
2018-08-21T00:31:57.837Z,99.99
2018-08-21T00:41:57.952Z,99.99
2018-08-21T00:51:57.773Z,99.99
2018-08-21T01:01:57.871Z,99.99
2018-08-21T01:11:57.828Z,99.99
2018-08-21T01:22:02.545Z,99.99
2018-08-21T01:32:22.271Z,99.99
2018-08-21T01:41:57.748Z,99.99
2018-08-21T01:51:57.834Z,99.99
2018-08-21T02:01:57.824Z,99.99
2018-08-21T02:11:57.781Z,99.99
2018-08-21T02:21:57.824Z,99.99
2018-08-21T02:31:57.867Z,99.99
2018-08-21T02:41:57.872Z,99.99
2018-08-21T02:51:57.818Z,99.99
2018-08-21T03:01:57.777Z,99.99
2018-08-21T03:11:57.842Z,99.99
2018-08-21T03:21:57.824Z,99.99
2018-08-21T03:31:57.858Z,99.99
2018-08-21T03:41:57.836Z,99.99
2018-08-21T03:51:57.779Z,99.99
2018-08-21T04:01:57.827Z,99.99
2018-08-21T04:11:57.787Z,99.99
2018-08-21T04:21:57.927Z,99.99
2018-08-21T04:31:57.835Z,99.99
2018-08-21T04:41:57.839Z,99.99
2018-08-21T04:51:57.851Z,99.99
2018-08-21T05:01:57.800Z,99.99
2018-08-21T05:11:57.800Z,99.99
2018-08-21T05:21:57.882Z,99.99
2018-08-21T05:31:57.858Z,99.99
2018-08-21T05:41:57.908Z,99.99
2018-08-21T05:51:57.896Z,99.99
2018-08-21T06:01:57.849Z,99.99
2018-08-21T06:11:57.830Z,99.99
2018-08-21T06:21:57.829Z,99.99
2018-08-21T06:31:57.958Z,99.99
2018-08-21T06:41:57.857Z,99.99
2018-08-21T06:51:57.806Z,99.99
2018-08-21T07:01:57.841Z,99.99
2018-08-21T07:11:57.820Z,99.99
2018-08-21T07:21:57.867Z,95.25
2018-08-21T07:31:57.848Z,91.17
2018-08-21T07:41:57.868Z,90.44
2018-08-21T07:51:57.855Z,91.22
2018-08-21T08:01:57.865Z,91.41
2018-08-21T08:11:57.827Z,88.12
2018-08-21T08:21:57.865Z,86.12
2018-08-21T08:31:57.881Z,82.28
2018-08-21T08:41:57.938Z,81.45
2018-08-21T08:51:57.878Z,81.93
2018-08-21T09:01:57.864Z,79.84
2018-08-21T09:11:57.879Z,80.29
2018-08-21T09:21:57.889Z,80.04
2018-08-21T09:31:57.875Z,80.38
2018-08-21T09:41:57.891Z,79.55
2018-08-21T09:51:57.866Z,78.61
2018-08-21T10:01:57.901Z,76.97
2018-08-21T10:11:57.905Z,77.25
2018-08-21T10:21:57.904Z,76.77
2018-08-21T10:31:57.914Z,75.8
2018-08-21T10:41:57.899Z,75.7
2018-08-21T10:51:57.916Z,71.91
2018-08-21T11:01:57.893Z,70.75
2018-08-21T11:11:57.932Z,67.57
2018-08-21T11:21:57.905Z,67.8
2018-08-21T11:31:57.909Z,65.26
2018-08-21T11:41:57.930Z,66.6
2018-08-21T11:51:57.897Z,64.81
2018-08-21T12:01:57.978Z,62.54
2018-08-21T12:11:57.916Z,64.32
2018-08-21T12:21:57.919Z,65.95
2018-08-21T12:31:57.948Z,62.96
2018-08-21T12:41:57.930Z,64.75
2018-08-21T12:51:57.951Z,62.35
2018-08-21T13:01:57.945Z,60.85
2018-08-21T13:11:57.992Z,58.64
2018-08-21T13:22:00.130Z,55.75
2018-08-21T13:31:57.952Z,56.29
2018-08-21T13:41:57.958Z,56.1
2018-08-21T13:51:57.958Z,55.02
2018-08-21T14:01:58.027Z,54.83
2018-08-21T14:11:58.096Z,60.65
2018-08-21T14:21:58.035Z,60.75
2018-08-21T14:31:58.028Z,62.7
2018-08-21T14:41:58.025Z,62.47
2018-08-21T14:51:57.995Z,63.9
2018-08-21T15:01:57.982Z,63.58
2018-08-21T15:11:58.062Z,63.58
2018-08-21T15:21:57.988Z,63.65
2018-08-21T15:31:58.104Z,63.65
2018-08-21T15:41:57.976Z,65.75
2018-08-21T15:51:57.988Z,67.28
2018-08-21T16:01:58.059Z,67.99
2018-08-21T16:11:58.067Z,67.41
2018-08-21T16:21:58.026Z,64.56
2018-08-21T16:31:58.040Z,65.72
2018-08-21T16:41:58.044Z,69.41
2018-08-21T16:51:58.108Z,72.23
2018-08-21T17:01:58.171Z,73.46
2018-08-21T17:11:58.008Z,74.87
2018-08-21T17:21:58.117Z,76.04
2018-08-21T17:31:58.035Z,77.36
2018-08-21T17:41:58.094Z,78.09
2018-08-21T17:51:58.077Z,78.38
2018-08-21T18:01:58.028Z,78.92
2018-08-21T18:11:58.093Z,80.09
2018-08-21T18:21:58.023Z,80.49
2018-08-21T18:31:58.128Z,82.43
2018-08-21T18:41:58.056Z,83.16
2018-08-21T18:51:58.033Z,84.71
2018-08-21T19:01:58.063Z,85.53
2018-08-21T19:11:58.071Z,87.04
2018-08-21T19:21:58.155Z,89.79
2018-08-21T19:31:58.108Z,92.02
2018-08-21T19:41:58.031Z,93.91
2018-08-21T19:51:58.156Z,97.91
2018-08-21T20:01:58.081Z,99.99
2018-08-21T20:11:58.069Z,99.99
2018-08-21T20:21:58.157Z,99.99
2018-08-21T20:31:58.112Z,99.99
2018-08-21T20:41:58.055Z,99.99
2018-08-21T20:51:58.130Z,99.99
2018-08-21T21:01:58.057Z,99.99
2018-08-21T21:11:58.127Z,99.99
2018-08-21T21:21:58.109Z,99.99
2018-08-21T21:31:58.504Z,99.99
2018-08-21T21:41:58.138Z,99.99
2018-08-21T21:51:58.011Z,99.99
2018-08-21T22:01:58.111Z,99.99
2018-08-21T22:11:58.179Z,99.99
2018-08-21T22:21:58.150Z,99.99
2018-08-21T22:31:58.070Z,99.99
2018-08-21T22:41:58.053Z,99.99
2018-08-21T22:51:58.180Z,99.99
2018-08-21T23:01:58.131Z,99.99
2018-08-21T23:11:58.082Z,99.99
2018-08-21T23:21:58.155Z,99.99
2018-08-21T23:31:58.145Z,99.99
2018-08-21T23:41:58.069Z,99.99
2018-08-21T23:51:58.139Z,99.99
